Titania — HKCF6 — position and weather

sailwx.info

Track history (hours):
 
Tides and Currents Weather Stations Pressure Air Temp Water Temp Dewpoint Dewpoint Depression Visibility Wind Speed Wind Dir Waves Ship Positions

Titania

Last reported at 2017-Nov-17 22:33 UTC. Time now 2017-Nov-22 18:08 UTC.
Position N 10°24' W 075°32'.

Length 22 m; draft 2.8 m.

Type: Tug. MMSI: 730070000.

Date/timePositionNaut miles runAvg speedWind from/ knotsBaromVisibWave heightAir tempDewpointWater temp
2017-Nov-17 22:33N 10°24' W 075°32'0 0.0
2017-Nov-17 22:20N 10°24' W 075°32'0 0.4
2017-Nov-17 22:00N 10°24' W 075°32'0 0.0
2017-Nov-17 21:30N 10°24' W 075°32'0 0.3
2017-Nov-17 21:00N 10°24' W 075°32'0 0.1
2017-Nov-17 20:30N 10°24' W 075°32'3 6.6
2017-Nov-17 20:00N 10°21' W 075°31'1 2.0
2017-Nov-17 19:30N 10°20' W 075°31'0 0.0
2017-Nov-17 19:00N 10°20' W 075°31'0 0.0
2017-Nov-17 18:30N 10°20' W 075°31'0 0.0
2017-Nov-17 18:00N 10°20' W 075°31'0 0.0
2017-Nov-17 17:30N 10°20' W 075°31'0 0.0
2017-Nov-17 17:00N 10°20' W 075°31'0 0.0
2017-Nov-17 16:30N 10°20' W 075°31'0 0.0
2017-Nov-17 16:00N 10°20' W 075°31'0 0.1
2017-Nov-17 15:30N 10°20' W 075°31'2 3.3
2017-Nov-17 15:00N 10°18' W 075°30'0 0.0
2017-Nov-17 14:30N 10°18' W 075°30'0 0.8
2017-Nov-17 13:59N 10°19' W 075°31'0 0.8
2017-Nov-17 13:30N 10°18' W 075°31'0 0.0
2017-Nov-17 13:00N 10°18' W 075°31'0 0.0
2017-Nov-17 12:30N 10°18' W 075°31'0 0.0
2017-Nov-17 12:00N 10°18' W 075°31'0 0.0
2017-Nov-17 11:30N 10°18' W 075°31'0 0.0
2017-Nov-17 11:00N 10°18' W 075°31'0 0.0
2017-Nov-17 10:30N 10°18' W 075°31'0 0.0
2017-Nov-17 10:00N 10°18' W 075°31'0 0.0
2017-Nov-17 09:30N 10°18' W 075°31'0 0.0
2017-Nov-17 08:59N 10°18' W 075°31'0 0.0
2017-Nov-17 08:07N 10°18' W 075°31'0 0.0
2017-Nov-17 08:00N 10°18' W 075°31'0 0.9
2017-Nov-17 07:30N 10°18' W 075°30'0 0.1
2017-Nov-17 07:00N 10°18' W 075°30'1 1.8
2017-Nov-17 06:30N 10°19' W 075°31'0 0.3
2017-Nov-17 06:00N 10°19' W 075°31'4 7.4
2017-Nov-17 05:30N 10°22' W 075°32'2 3.7
2017-Nov-17 05:00N 10°24' W 075°31'0 0.0
2017-Nov-17 04:30N 10°24' W 075°31'0 0.0
2017-Nov-17 04:00N 10°24' W 075°31'0 0.0
2017-Nov-17 03:30N 10°24' W 075°31'0 0.0
2017-Nov-17 03:00N 10°24' W 075°31'0 0.0
2017-Nov-17 02:29N 10°24' W 075°31'0 0.0
2017-Nov-17 01:57N 10°24' W 075°31'0 0.0
2017-Nov-17 01:29N 10°24' W 075°31'0 0.0
2017-Nov-17 00:58N 10°24' W 075°31'0 0.0
2017-Nov-17 00:30N 10°24' W 075°31'0 0.0
2017-Nov-17 00:00N 10°24' W 075°31'0 0.0
2017-Nov-16 23:30N 10°24' W 075°31'0 0.0
2017-Nov-16 23:00N 10°24' W 075°31'2 4.2
2017-Nov-16 22:30N 10°22' W 075°32'2 4.8
2017-Nov-16 22:00N 10°20' W 075°31'0 0.1
2017-Nov-16 21:30N 10°20' W 075°31'1 1.0
2017-Nov-16 21:00N 10°20' W 075°31'0 0.4
2017-Nov-16 20:30N 10°20' W 075°31'3 5.7
2017-Nov-16 20:00N 10°23' W 075°31'0 0.0
2017-Nov-16 19:29N 10°23' W 075°31'0 0.0
2017-Nov-16 19:00N 10°23' W 075°31'0 0.0
2017-Nov-16 18:30N 10°23' W 075°31'0 0.0
2017-Nov-16 18:00N 10°23' W 075°31'0 0.5
2017-Nov-16 17:30N 10°23' W 075°31'1 1.1
2017-Nov-16 16:59N 10°22' W 075°31'1 1.3
2017-Nov-16 16:30N 10°23' W 075°32'2 3.0
2017-Nov-16 15:59N 10°24' W 075°32'0 0.8
2017-Nov-16 15:30N 10°24' W 075°31'0 0.0
2017-Nov-16 15:00N 10°24' W 075°31'0 0.0
2017-Nov-16 14:30N 10°24' W 075°31'0 0.0
2017-Nov-16 14:00N 10°24' W 075°31'2 4.6
2017-Nov-16 13:30N 10°22' W 075°32'3 7.1
2017-Nov-16 13:00N 10°18' W 075°30'1 1.4
2017-Nov-16 12:30N 10°19' W 075°31'4 8.4
2017-Nov-16 12:00N 10°23' W 075°32'1 2.5
2017-Nov-16 11:30N 10°24' W 075°31'0 0.0
2017-Nov-16 10:53N 10°24' W 075°31'0 0.0
2017-Nov-16 10:30N 10°24' W 075°31'0 0.0
2017-Nov-16 10:00N 10°24' W 075°31'0 0.0
2017-Nov-16 09:30N 10°24' W 075°31'0 0.0
2017-Nov-16 08:02N 10°24' W 075°31'0 0.0
2017-Nov-16 08:00N 10°24' W 075°31'0 0.0
2017-Nov-16 07:29N 10°24' W 075°31'0 0.0
2017-Nov-16 07:00N 10°24' W 075°31'0 0.0
2017-Nov-16 06:29N 10°24' W 075°31'0 0.0
2017-Nov-16 05:58N 10°24' W 075°31'0 0.0
2017-Nov-16 05:30N 10°24' W 075°31'0 0.0
2017-Nov-16 04:59N 10°24' W 075°31'0 0.0
2017-Nov-16 04:26N 10°24' W 075°31'0 0.0
2017-Nov-16 03:57N 10°24' W 075°31'0 0.0
2017-Nov-16 03:30N 10°24' W 075°31'0 0.0
2017-Nov-16 03:00N 10°24' W 075°31'1 2.8
2017-Nov-16 02:30N 10°23' W 075°32'3 5.0
2017-Nov-16 02:00N 10°20' W 075°31'0 0.4
2017-Nov-16 01:30N 10°20' W 075°31'0 0.4
2017-Nov-16 01:00N 10°20' W 075°31'0 0.8
2017-Nov-16 00:30N 10°20' W 075°31'2 3.1
2017-Nov-16 00:00N 10°22' W 075°32'2 4.5
2017-Nov-15 23:29N 10°24' W 075°31'0 0.0
2017-Nov-15 23:00N 10°24' W 075°31'0 0.0
2017-Nov-15 22:30N 10°24' W 075°31'0 0.0
2017-Nov-15 22:00N 10°24' W 075°31'0 0.0
2017-Nov-15 21:30N 10°24' W 075°31'0 0.0
2017-Nov-15 21:00N 10°24' W 075°31'0 0.0
2017-Nov-15 20:30N 10°24' W 075°31'0 0.0
2017-Nov-15 20:00N 10°24' W 075°31'0 0.0
2017-Nov-15 19:29N 10°24' W 075°31'0 0.0
2017-Nov-15 18:59N 10°24' W 075°31'0 0.7
2017-Nov-15 18:30N 10°24' W 075°32'4 7.4
2017-Nov-15 17:59N 10°20' W 075°31'2 4.5
2017-Nov-15 17:30N 10°18' W 075°31'1 1.1
2017-Nov-15 17:00N 10°19' W 075°31'1 1.1
2017-Nov-15 16:30N 10°19' W 075°31'2 3.4
2017-Nov-15 16:00N 10°21' W 075°31'3 6.8
2017-Nov-15 15:30N 10°24' W 075°32'0 0.7
2017-Nov-15 14:59N 10°24' W 075°31'0 0.0
2017-Nov-15 14:17N 10°24' W 075°31'0 0.0
2017-Nov-15 14:00N 10°24' W 075°31'0 0.0
2017-Nov-15 13:29N 10°24' W 075°31'0 0.0
2017-Nov-15 13:00N 10°24' W 075°31'0 0.0
2017-Nov-15 12:30N 10°24' W 075°31'0 0.0
2017-Nov-15 12:00N 10°24' W 075°31'0 0.0
2017-Nov-15 11:30N 10°24' W 075°31'0 0.4
2017-Nov-15 10:59N 10°24' W 075°32'  
2017-Nov-12 01:50N 10°24' W 075°32'0 0.0
2017-Nov-12 01:25N 10°24' W 075°32'0 0.0
2017-Nov-12 00:58N 10°24' W 075°32'0 0.0
2017-Nov-12 00:17N 10°24' W 075°32'0 0.0
2017-Nov-11 23:59N 10°24' W 075°32'0 0.0
2017-Nov-11 23:26N 10°24' W 075°32'0 0.0
2017-Nov-11 23:00N 10°24' W 075°32'0 0.0
2017-Nov-11 22:30N 10°24' W 075°32'0 0.0
2017-Nov-11 22:00N 10°24' W 075°32'0 0.0
2017-Nov-11 21:29N 10°24' W 075°32'0 0.0
2017-Nov-11 21:00N 10°24' W 075°32'0 0.0
2017-Nov-11 20:30N 10°24' W 075°32'0 0.0
2017-Nov-11 20:00N 10°24' W 075°32'0 0.0
2017-Nov-11 19:30N 10°24' W 075°32'0 0.0
2017-Nov-11 19:00N 10°24' W 075°32'0 0.0
2017-Nov-11 18:30N 10°24' W 075°32'0 0.0
2017-Nov-11 18:00N 10°24' W 075°32'0 0.0
2017-Nov-11 17:30N 10°24' W 075°32'0 0.0
2017-Nov-11 17:00N 10°24' W 075°32'0 0.0
2017-Nov-11 16:30N 10°24' W 075°32'0 0.0
2017-Nov-11 16:00N 10°24' W 075°32'0 0.1
2017-Nov-11 15:30N 10°24' W 075°32'1 1.7
2017-Nov-11 15:00N 10°24' W 075°32'1 1.7
2017-Nov-11 14:30N 10°24' W 075°32'0 0.0
2017-Nov-11 14:00N 10°24' W 075°32'0 0.0
2017-Nov-11 13:29N 10°24' W 075°32'0 0.0
2017-Nov-11 13:00N 10°24' W 075°32'0 0.0
2017-Nov-11 12:30N 10°24' W 075°32'0 0.0
2017-Nov-11 12:00N 10°24' W 075°32'0 0.0
2017-Nov-11 11:30N 10°24' W 075°32'0 0.0
2017-Nov-11 11:00N 10°24' W 075°32'0 0.0
2017-Nov-11 10:30N 10°24' W 075°32'0 0.0
2017-Nov-11 10:00N 10°24' W 075°32'0 0.0
2017-Nov-11 09:30N 10°24' W 075°32'0 0.0
2017-Nov-11 08:08N 10°24' W 075°32'0 0.0
2017-Nov-11 08:00N 10°24' W 075°32'0 0.0
2017-Nov-11 07:30N 10°24' W 075°32'0 0.0
2017-Nov-11 07:00N 10°24' W 075°32'0 0.0
2017-Nov-11 06:30N 10°24' W 075°32'0 0.0
2017-Nov-11 06:00N 10°24' W 075°32'0 0.0
2017-Nov-11 05:30N 10°24' W 075°32'0 0.0
2017-Nov-11 05:00N 10°24' W 075°32'0 0.0
2017-Nov-11 04:30N 10°24' W 075°32'0 0.0
2017-Nov-11 04:00N 10°24' W 075°32'0 0.0
2017-Nov-11 03:30N 10°24' W 075°32'0 0.0
2017-Nov-11 03:00N 10°24' W 075°32'0 0.0
2017-Nov-11 02:29N 10°24' W 075°32'0 0.0
2017-Nov-11 02:00N 10°24' W 075°32'0 0.0
2017-Nov-11 01:25N 10°24' W 075°32'1 1.7
2017-Nov-11 01:00N 10°24' W 075°32'1 1.1
2017-Nov-11 00:30N 10°24' W 075°32'4 7.7
2017-Nov-11 00:00N 10°20' W 075°31'0 0.8
2017-Nov-10 23:30N 10°20' W 075°31'0 0.7
2017-Nov-10 23:00N 10°20' W 075°31'0 0.1
2017-Nov-10 22:30N 10°20' W 075°31'3 6.3
2017-Nov-10 22:00N 10°23' W 075°32'2 3.9
2017-Nov-10 21:30N 10°24' W 075°32'0 0.0
2017-Nov-10 21:00N 10°24' W 075°32'0 0.0
2017-Nov-10 20:30N 10°24' W 075°32'0 0.0
2017-Nov-10 20:00N 10°24' W 075°32'0 0.0
2017-Nov-10 19:30N 10°24' W 075°32'0 0.0
2017-Nov-10 19:00N 10°24' W 075°32'0 0.0
2017-Nov-10 18:29N 10°24' W 075°32'0 0.0
2017-Nov-10 18:00N 10°24' W 075°32'0 0.0
2017-Nov-10 17:30N 10°24' W 075°32'0 0.3
2017-Nov-10 17:00N 10°24' W 075°32'0 0.9
2017-Nov-10 16:30N 10°24' W 075°32'1 1.2
2017-Nov-10 16:00N 10°24' W 075°31'0 0.0
2017-Nov-10 15:29N 10°24' W 075°31'4 1.3
2017-Nov-10 12:26N 10°20' W 075°31'4 0.2
2017-Nov-09 14:54N 10°24' W 075°31'0 0.0
2017-Nov-09 13:49N 10°24' W 075°31'1 1.6
2017-Nov-09 13:30N 10°24' W 075°32'4 7.9
2017-Nov-09 13:00N 10°20' W 075°31'1 1.5
2017-Nov-09 12:30N 10°20' W 075°31'0 1.0
2017-Nov-09 12:00N 10°20' W 075°31'1 1.1
2017-Nov-09 11:30N 10°20' W 075°31'2 3.3
2017-Nov-09 11:00N 10°21' W 075°32'3 3.4
2017-Nov-09 10:09N 10°24' W 075°31'0 0.0
2017-Nov-09 09:40N 10°24' W 075°31'0 0.0
2017-Nov-09 09:30N 10°24' W 075°31'0 0.0
2017-Nov-09 08:10N 10°24' W 075°31'0 0.0
2017-Nov-09 08:00N 10°24' W 075°31'0 0.0
2017-Nov-09 07:30N 10°24' W 075°31'0 0.0
2017-Nov-09 07:00N 10°24' W 075°31'0 0.0
2017-Nov-09 06:31N 10°24' W 075°31'0 0.0
2017-Nov-09 06:01N 10°24' W 075°31'0 0.0
2017-Nov-09 05:31N 10°24' W 075°31'0 0.0
2017-Nov-09 05:01N 10°24' W 075°31'0 0.0
2017-Nov-09 04:31N 10°24' W 075°31'0 0.0
2017-Nov-09 04:00N 10°24' W 075°31'0 0.0
2017-Nov-09 03:25N 10°24' W 075°31'0 0.0
2017-Nov-09 02:59N 10°24' W 075°31'1 2.4
2017-Nov-09 02:30N 10°23' W 075°32'4 8.7
2017-Nov-09 02:00N 10°19' W 075°31'1 2.4
2017-Nov-09 01:30N 10°18' W 075°30'1 1.1
2017-Nov-09 01:01N 10°18' W 075°31'1 1.3
2017-Nov-09 00:30N 10°19' W 075°31'1 2.1
2017-Nov-09 00:00N 10°20' W 075°31'0 0.0
2017-Nov-08 23:31N 10°20' W 075°31'0 0.4
2017-Nov-08 22:59N 10°20' W 075°31'2 3.9
2017-Nov-08 22:30N 10°18' W 075°30'0 0.6
2017-Nov-08 22:00N 10°19' W 075°31'0 1.0
2017-Nov-08 21:30N 10°19' W 075°31'1 2.1
2017-Nov-08 21:01N 10°20' W 075°31'4 7.4
2017-Nov-08 20:30N 10°24' W 075°32'1 2.1
2017-Nov-08 20:01N 10°24' W 075°31'0 0.0
2017-Nov-08 19:30N 10°24' W 075°31'0 0.0
2017-Nov-08 19:00N 10°24' W 075°31'0 0.0
2017-Nov-08 18:30N 10°24' W 075°31'0 0.0
2017-Nov-08 18:01N 10°24' W 075°31'0 0.0
2017-Nov-08 17:31N 10°24' W 075°31'0 0.0
2017-Nov-08 17:01N 10°24' W 075°31'0 0.0
2017-Nov-08 16:31N 10°24' W 075°31'0 0.0
2017-Nov-08 16:00N 10°24' W 075°31'0 0.0
2017-Nov-08 15:30N 10°24' W 075°31'0 0.0
2017-Nov-08 15:00N 10°24' W 075°31'0 0.0
2017-Nov-08 14:30N 10°24' W 075°31'0 0.0
2017-Nov-08 14:00N 10°24' W 075°31'0 0.0
2017-Nov-08 13:30N 10°24' W 075°31'0 0.0
2017-Nov-08 13:00N 10°24' W 075°31'0 0.0
2017-Nov-08 12:31N 10°24' W 075°31'0 0.0
2017-Nov-08 12:00N 10°24' W 075°31'0 0.0
2017-Nov-08 11:31N 10°24' W 075°31'0 0.0
2017-Nov-08 11:01N 10°24' W 075°31'0 0.0
2017-Nov-08 10:30N 10°24' W 075°31'0 0.0
2017-Nov-08 09:59N 10°24' W 075°31'3 1.7
2017-Nov-08 08:06N 10°21' W 075°31'1 8.7
2017-Nov-08 08:01N 10°20' W 075°31'1 1.1
2017-Nov-08 07:31N 10°20' W 075°31'0 0.4
2017-Nov-08 07:00N 10°20' W 075°31'0 0.8
2017-Nov-08 06:31N 10°20' W 075°31'0 0.3
2017-Nov-08 06:00N 10°20' W 075°31'0 0.0
2017-Nov-08 05:31N 10°20' W 075°31'0 0.0
2017-Nov-08 05:00N 10°20' W 075°31'0 0.0
2017-Nov-08 04:30N 10°20' W 075°31'0 0.0
2017-Nov-08 04:00N 10°20' W 075°31'0 0.0
2017-Nov-08 03:30N 10°20' W 075°31'0 0.0
2017-Nov-08 03:00N 10°20' W 075°31'0 0.0
2017-Nov-08 02:30N 10°20' W 075°31'1 1.8
2017-Nov-08 02:00N 10°21' W 075°30'1 1.7
2017-Nov-08 01:30N 10°20' W 075°31'0 0.0
2017-Nov-08 01:01N 10°20' W 075°31'0 0.0
2017-Nov-08 00:30N 10°20' W 075°31'0 0.0
2017-Nov-08 00:00N 10°20' W 075°31'1 1.8
2017-Nov-07 23:30N 10°21' W 075°30'3 5.7
2017-Nov-07 23:01N 10°23' W 075°32'  
Track history (hours):
 
Tides and Currents Weather Stations Pressure Air Temp Water Temp Dewpoint Dewpoint Depression Visibility Wind Speed Wind Dir Waves Ship Positions

Titania

Last reported at 2017-Nov-17 22:33 UTC. Time now 2017-Nov-22 18:08 UTC.
Position N 10°24' W 075°32'.

Length 22 m; draft 2.8 m.

Type: Tug. MMSI: 730070000.

Date/timePositionNaut miles runAvg speedWind from/ knotsBaromVisibWave heightAir tempDewpointWater temp
2017-Nov-17 22:33N 10°24' W 075°32'0 0.0
2017-Nov-17 22:20N 10°24' W 075°32'0 0.4
2017-Nov-17 22:00N 10°24' W 075°32'0 0.0
2017-Nov-17 21:30N 10°24' W 075°32'0 0.3
2017-Nov-17 21:00N 10°24' W 075°32'0 0.1
2017-Nov-17 20:30N 10°24' W 075°32'3 6.6
2017-Nov-17 20:00N 10°21' W 075°31'1 2.0
2017-Nov-17 19:30N 10°20' W 075°31'0 0.0
2017-Nov-17 19:00N 10°20' W 075°31'0 0.0
2017-Nov-17 18:30N 10°20' W 075°31'0 0.0
2017-Nov-17 18:00N 10°20' W 075°31'0 0.0
2017-Nov-17 17:30N 10°20' W 075°31'0 0.0
2017-Nov-17 17:00N 10°20' W 075°31'0 0.0
2017-Nov-17 16:30N 10°20' W 075°31'0 0.0
2017-Nov-17 16:00N 10°20' W 075°31'0 0.1
2017-Nov-17 15:30N 10°20' W 075°31'2 3.3
2017-Nov-17 15:00N 10°18' W 075°30'0 0.0
2017-Nov-17 14:30N 10°18' W 075°30'0 0.8
2017-Nov-17 13:59N 10°19' W 075°31'0 0.8
2017-Nov-17 13:30N 10°18' W 075°31'0 0.0
2017-Nov-17 13:00N 10°18' W 075°31'0 0.0
2017-Nov-17 12:30N 10°18' W 075°31'0 0.0
2017-Nov-17 12:00N 10°18' W 075°31'0 0.0
2017-Nov-17 11:30N 10°18' W 075°31'0 0.0
2017-Nov-17 11:00N 10°18' W 075°31'0 0.0
2017-Nov-17 10:30N 10°18' W 075°31'0 0.0
2017-Nov-17 10:00N 10°18' W 075°31'0 0.0
2017-Nov-17 09:30N 10°18' W 075°31'0 0.0
2017-Nov-17 08:59N 10°18' W 075°31'0 0.0
2017-Nov-17 08:07N 10°18' W 075°31'0 0.0
2017-Nov-17 08:00N 10°18' W 075°31'0 0.9
2017-Nov-17 07:30N 10°18' W 075°30'0 0.1
2017-Nov-17 07:00N 10°18' W 075°30'1 1.8
2017-Nov-17 06:30N 10°19' W 075°31'0 0.3
2017-Nov-17 06:00N 10°19' W 075°31'4 7.4
2017-Nov-17 05:30N 10°22' W 075°32'2 3.7
2017-Nov-17 05:00N 10°24' W 075°31'0 0.0
2017-Nov-17 04:30N 10°24' W 075°31'0 0.0
2017-Nov-17 04:00N 10°24' W 075°31'0 0.0
2017-Nov-17 03:30N 10°24' W 075°31'0 0.0
2017-Nov-17 03:00N 10°24' W 075°31'0 0.0
2017-Nov-17 02:29N 10°24' W 075°31'0 0.0
2017-Nov-17 01:57N 10°24' W 075°31'0 0.0
2017-Nov-17 01:29N 10°24' W 075°31'0 0.0
2017-Nov-17 00:58N 10°24' W 075°31'0 0.0
2017-Nov-17 00:30N 10°24' W 075°31'0 0.0
2017-Nov-17 00:00N 10°24' W 075°31'0 0.0
2017-Nov-16 23:30N 10°24' W 075°31'0 0.0
2017-Nov-16 23:00N 10°24' W 075°31'2 4.2
2017-Nov-16 22:30N 10°22' W 075°32'2 4.8
2017-Nov-16 22:00N 10°20' W 075°31'0 0.1
2017-Nov-16 21:30N 10°20' W 075°31'1 1.0
2017-Nov-16 21:00N 10°20' W 075°31'0 0.4
2017-Nov-16 20:30N 10°20' W 075°31'3 5.7
2017-Nov-16 20:00N 10°23' W 075°31'0 0.0
2017-Nov-16 19:29N 10°23' W 075°31'0 0.0
2017-Nov-16 19:00N 10°23' W 075°31'0 0.0
2017-Nov-16 18:30N 10°23' W 075°31'0 0.0
2017-Nov-16 18:00N 10°23' W 075°31'0 0.5
2017-Nov-16 17:30N 10°23' W 075°31'1 1.1
2017-Nov-16 16:59N 10°22' W 075°31'1 1.3
2017-Nov-16 16:30N 10°23' W 075°32'2 3.0
2017-Nov-16 15:59N 10°24' W 075°32'0 0.8
2017-Nov-16 15:30N 10°24' W 075°31'0 0.0
2017-Nov-16 15:00N 10°24' W 075°31'0 0.0
2017-Nov-16 14:30N 10°24' W 075°31'0 0.0
2017-Nov-16 14:00N 10°24' W 075°31'2 4.6
2017-Nov-16 13:30N 10°22' W 075°32'3 7.1
2017-Nov-16 13:00N 10°18' W 075°30'1 1.4
2017-Nov-16 12:30N 10°19' W 075°31'4 8.4
2017-Nov-16 12:00N 10°23' W 075°32'1 2.5
2017-Nov-16 11:30N 10°24' W 075°31'0 0.0
2017-Nov-16 10:53N 10°24' W 075°31'0 0.0
2017-Nov-16 10:30N 10°24' W 075°31'0 0.0
2017-Nov-16 10:00N 10°24' W 075°31'0 0.0
2017-Nov-16 09:30N 10°24' W 075°31'0 0.0
2017-Nov-16 08:02N 10°24' W 075°31'0 0.0
2017-Nov-16 08:00N 10°24' W 075°31'0 0.0
2017-Nov-16 07:29N 10°24' W 075°31'0 0.0
2017-Nov-16 07:00N 10°24' W 075°31'0 0.0
2017-Nov-16 06:29N 10°24' W 075°31'0 0.0
2017-Nov-16 05:58N 10°24' W 075°31'0 0.0
2017-Nov-16 05:30N 10°24' W 075°31'0 0.0
2017-Nov-16 04:59N 10°24' W 075°31'0 0.0
2017-Nov-16 04:26N 10°24' W 075°31'0 0.0
2017-Nov-16 03:57N 10°24' W 075°31'0 0.0
2017-Nov-16 03:30N 10°24' W 075°31'0 0.0
2017-Nov-16 03:00N 10°24' W 075°31'1 2.8
2017-Nov-16 02:30N 10°23' W 075°32'3 5.0
2017-Nov-16 02:00N 10°20' W 075°31'0 0.4
2017-Nov-16 01:30N 10°20' W 075°31'0 0.4
2017-Nov-16 01:00N 10°20' W 075°31'0 0.8
2017-Nov-16 00:30N 10°20' W 075°31'2 3.1
2017-Nov-16 00:00N 10°22' W 075°32'2 4.5
2017-Nov-15 23:29N 10°24' W 075°31'0 0.0
2017-Nov-15 23:00N 10°24' W 075°31'0 0.0
2017-Nov-15 22:30N 10°24' W 075°31'0 0.0
2017-Nov-15 22:00N 10°24' W 075°31'0 0.0
2017-Nov-15 21:30N 10°24' W 075°31'0 0.0
2017-Nov-15 21:00N 10°24' W 075°31'0 0.0
2017-Nov-15 20:30N 10°24' W 075°31'0 0.0
2017-Nov-15 20:00N 10°24' W 075°31'0 0.0
2017-Nov-15 19:29N 10°24' W 075°31'0 0.0
2017-Nov-15 18:59N 10°24' W 075°31'0 0.7
2017-Nov-15 18:30N 10°24' W 075°32'4 7.4
2017-Nov-15 17:59N 10°20' W 075°31'2 4.5
2017-Nov-15 17:30N 10°18' W 075°31'1 1.1
2017-Nov-15 17:00N 10°19' W 075°31'1 1.1
2017-Nov-15 16:30N 10°19' W 075°31'2 3.4
2017-Nov-15 16:00N 10°21' W 075°31'3 6.8
2017-Nov-15 15:30N 10°24' W 075°32'0 0.7
2017-Nov-15 14:59N 10°24' W 075°31'0 0.0
2017-Nov-15 14:17N 10°24' W 075°31'0 0.0
2017-Nov-15 14:00N 10°24' W 075°31'0 0.0
2017-Nov-15 13:29N 10°24' W 075°31'0 0.0
2017-Nov-15 13:00N 10°24' W 075°31'0 0.0
2017-Nov-15 12:30N 10°24' W 075°31'0 0.0
2017-Nov-15 12:00N 10°24' W 075°31'0 0.0
2017-Nov-15 11:30N 10°24' W 075°31'0 0.4
2017-Nov-15 10:59N 10°24' W 075°32'  
2017-Nov-12 01:50N 10°24' W 075°32'0 0.0
2017-Nov-12 01:25N 10°24' W 075°32'0 0.0
2017-Nov-12 00:58N 10°24' W 075°32'0 0.0
2017-Nov-12 00:17N 10°24' W 075°32'0 0.0
2017-Nov-11 23:59N 10°24' W 075°32'0 0.0
2017-Nov-11 23:26N 10°24' W 075°32'0 0.0
2017-Nov-11 23:00N 10°24' W 075°32'0 0.0
2017-Nov-11 22:30N 10°24' W 075°32'0 0.0
2017-Nov-11 22:00N 10°24' W 075°32'0 0.0
2017-Nov-11 21:29N 10°24' W 075°32'0 0.0
2017-Nov-11 21:00N 10°24' W 075°32'0 0.0
2017-Nov-11 20:30N 10°24' W 075°32'0 0.0
2017-Nov-11 20:00N 10°24' W 075°32'0 0.0
2017-Nov-11 19:30N 10°24' W 075°32'0 0.0
2017-Nov-11 19:00N 10°24' W 075°32'0 0.0
2017-Nov-11 18:30N 10°24' W 075°32'0 0.0
2017-Nov-11 18:00N 10°24' W 075°32'0 0.0
2017-Nov-11 17:30N 10°24' W 075°32'0 0.0
2017-Nov-11 17:00N 10°24' W 075°32'0 0.0
2017-Nov-11 16:30N 10°24' W 075°32'0 0.0
2017-Nov-11 16:00N 10°24' W 075°32'0 0.1
2017-Nov-11 15:30N 10°24' W 075°32'1 1.7
2017-Nov-11 15:00N 10°24' W 075°32'1 1.7
2017-Nov-11 14:30N 10°24' W 075°32'0 0.0
2017-Nov-11 14:00N 10°24' W 075°32'0 0.0
2017-Nov-11 13:29N 10°24' W 075°32'0 0.0
2017-Nov-11 13:00N 10°24' W 075°32'0 0.0
2017-Nov-11 12:30N 10°24' W 075°32'0 0.0
2017-Nov-11 12:00N 10°24' W 075°32'0 0.0
2017-Nov-11 11:30N 10°24' W 075°32'0 0.0
2017-Nov-11 11:00N 10°24' W 075°32'0 0.0
2017-Nov-11 10:30N 10°24' W 075°32'0 0.0
2017-Nov-11 10:00N 10°24' W 075°32'0 0.0
2017-Nov-11 09:30N 10°24' W 075°32'0 0.0
2017-Nov-11 08:08N 10°24' W 075°32'0 0.0
2017-Nov-11 08:00N 10°24' W 075°32'0 0.0
2017-Nov-11 07:30N 10°24' W 075°32'0 0.0
2017-Nov-11 07:00N 10°24' W 075°32'0 0.0
2017-Nov-11 06:30N 10°24' W 075°32'0 0.0
2017-Nov-11 06:00N 10°24' W 075°32'0 0.0
2017-Nov-11 05:30N 10°24' W 075°32'0 0.0
2017-Nov-11 05:00N 10°24' W 075°32'0 0.0
2017-Nov-11 04:30N 10°24' W 075°32'0 0.0
2017-Nov-11 04:00N 10°24' W 075°32'0 0.0
2017-Nov-11 03:30N 10°24' W 075°32'0 0.0
2017-Nov-11 03:00N 10°24' W 075°32'0 0.0
2017-Nov-11 02:29N 10°24' W 075°32'0 0.0
2017-Nov-11 02:00N 10°24' W 075°32'0 0.0
2017-Nov-11 01:25N 10°24' W 075°32'1 1.7
2017-Nov-11 01:00N 10°24' W 075°32'1 1.1
2017-Nov-11 00:30N 10°24' W 075°32'4 7.7
2017-Nov-11 00:00N 10°20' W 075°31'0 0.8
2017-Nov-10 23:30N 10°20' W 075°31'0 0.7
2017-Nov-10 23:00N 10°20' W 075°31'0 0.1
2017-Nov-10 22:30N 10°20' W 075°31'3 6.3
2017-Nov-10 22:00N 10°23' W 075°32'2 3.9
2017-Nov-10 21:30N 10°24' W 075°32'0 0.0
2017-Nov-10 21:00N 10°24' W 075°32'0 0.0
2017-Nov-10 20:30N 10°24' W 075°32'0 0.0
2017-Nov-10 20:00N 10°24' W 075°32'0 0.0
2017-Nov-10 19:30N 10°24' W 075°32'0 0.0
2017-Nov-10 19:00N 10°24' W 075°32'0 0.0
2017-Nov-10 18:29N 10°24' W 075°32'0 0.0
2017-Nov-10 18:00N 10°24' W 075°32'0 0.0
2017-Nov-10 17:30N 10°24' W 075°32'0 0.3
2017-Nov-10 17:00N 10°24' W 075°32'0 0.9
2017-Nov-10 16:30N 10°24' W 075°32'1 1.2
2017-Nov-10 16:00N 10°24' W 075°31'0 0.0
2017-Nov-10 15:29N 10°24' W 075°31'4 1.3
2017-Nov-10 12:26N 10°20' W 075°31'4 0.2
2017-Nov-09 14:54N 10°24' W 075°31'0 0.0
2017-Nov-09 13:49N 10°24' W 075°31'1 1.6
2017-Nov-09 13:30N 10°24' W 075°32'4 7.9
2017-Nov-09 13:00N 10°20' W 075°31'1 1.5
2017-Nov-09 12:30N 10°20' W 075°31'0 1.0
2017-Nov-09 12:00N 10°20' W 075°31'1 1.1
2017-Nov-09 11:30N 10°20' W 075°31'2 3.3
2017-Nov-09 11:00N 10°21' W 075°32'3 3.4
2017-Nov-09 10:09N 10°24' W 075°31'0 0.0
2017-Nov-09 09:40N 10°24' W 075°31'0 0.0
2017-Nov-09 09:30N 10°24' W 075°31'0 0.0
2017-Nov-09 08:10N 10°24' W 075°31'0 0.0
2017-Nov-09 08:00N 10°24' W 075°31'0 0.0
2017-Nov-09 07:30N 10°24' W 075°31'0 0.0
2017-Nov-09 07:00N 10°24' W 075°31'0 0.0
2017-Nov-09 06:31N 10°24' W 075°31'0 0.0
2017-Nov-09 06:01N 10°24' W 075°31'0 0.0
2017-Nov-09 05:31N 10°24' W 075°31'0 0.0
2017-Nov-09 05:01N 10°24' W 075°31'0 0.0
2017-Nov-09 04:31N 10°24' W 075°31'0 0.0
2017-Nov-09 04:00N 10°24' W 075°31'0 0.0
2017-Nov-09 03:25N 10°24' W 075°31'0 0.0
2017-Nov-09 02:59N 10°24' W 075°31'1 2.4
2017-Nov-09 02:30N 10°23' W 075°32'4 8.7
2017-Nov-09 02:00N 10°19' W 075°31'1 2.4
2017-Nov-09 01:30N 10°18' W 075°30'1 1.1
2017-Nov-09 01:01N 10°18' W 075°31'1 1.3
2017-Nov-09 00:30N 10°19' W 075°31'1 2.1
2017-Nov-09 00:00N 10°20' W 075°31'0 0.0
2017-Nov-08 23:31N 10°20' W 075°31'0 0.4
2017-Nov-08 22:59N 10°20' W 075°31'2 3.9
2017-Nov-08 22:30N 10°18' W 075°30'0 0.6
2017-Nov-08 22:00N 10°19' W 075°31'0 1.0
2017-Nov-08 21:30N 10°19' W 075°31'1 2.1
2017-Nov-08 21:01N 10°20' W 075°31'4 7.4
2017-Nov-08 20:30N 10°24' W 075°32'1 2.1
2017-Nov-08 20:01N 10°24' W 075°31'0 0.0
2017-Nov-08 19:30N 10°24' W 075°31'0 0.0
2017-Nov-08 19:00N 10°24' W 075°31'0 0.0
2017-Nov-08 18:30N 10°24' W 075°31'0 0.0
2017-Nov-08 18:01N 10°24' W 075°31'0 0.0
2017-Nov-08 17:31N 10°24' W 075°31'0 0.0
2017-Nov-08 17:01N 10°24' W 075°31'0 0.0
2017-Nov-08 16:31N 10°24' W 075°31'0 0.0
2017-Nov-08 16:00N 10°24' W 075°31'0 0.0
2017-Nov-08 15:30N 10°24' W 075°31'0 0.0
2017-Nov-08 15:00N 10°24' W 075°31'0 0.0
2017-Nov-08 14:30N 10°24' W 075°31'0 0.0
2017-Nov-08 14:00N 10°24' W 075°31'0 0.0
2017-Nov-08 13:30N 10°24' W 075°31'0 0.0
2017-Nov-08 13:00N 10°24' W 075°31'0 0.0
2017-Nov-08 12:31N 10°24' W 075°31'0 0.0
2017-Nov-08 12:00N 10°24' W 075°31'0 0.0
2017-Nov-08 11:31N 10°24' W 075°31'0 0.0
2017-Nov-08 11:01N 10°24' W 075°31'0 0.0
2017-Nov-08 10:30N 10°24' W 075°31'0 0.0
2017-Nov-08 09:59N 10°24' W 075°31'3 1.7
2017-Nov-08 08:06N 10°21' W 075°31'1 8.7
2017-Nov-08 08:01N 10°20' W 075°31'1 1.1
2017-Nov-08 07:31N 10°20' W 075°31'0 0.4
2017-Nov-08 07:00N 10°20' W 075°31'0 0.8
2017-Nov-08 06:31N 10°20' W 075°31'0 0.3
2017-Nov-08 06:00N 10°20' W 075°31'0 0.0
2017-Nov-08 05:31N 10°20' W 075°31'0 0.0
2017-Nov-08 05:00N 10°20' W 075°31'0 0.0
2017-Nov-08 04:30N 10°20' W 075°31'0 0.0
2017-Nov-08 04:00N 10°20' W 075°31'0 0.0
2017-Nov-08 03:30N 10°20' W 075°31'0 0.0
2017-Nov-08 03:00N 10°20' W 075°31'0 0.0
2017-Nov-08 02:30N 10°20' W 075°31'1 1.8
2017-Nov-08 02:00N 10°21' W 075°30'1 1.7
2017-Nov-08 01:30N 10°20' W 075°31'0 0.0
2017-Nov-08 01:01N 10°20' W 075°31'0 0.0
2017-Nov-08 00:30N 10°20' W 075°31'0 0.0
2017-Nov-08 00:00N 10°20' W 075°31'1 1.8
2017-Nov-07 23:30N 10°21' W 075°30'3 5.7
2017-Nov-07 23:01N 10°23' W 075°32'  

Dump ship's entire track history